createdAt,value
2022-08-10T00:00:07.759Z,36250.47
2022-08-10T00:02:35.485Z,36312.22
2022-08-10T00:05:03.301Z,36308.25
2022-08-10T00:07:30.525Z,36270.41
2022-08-10T00:09:58.030Z,36262.41
2022-08-10T00:12:54.779Z,36312.22
2022-08-10T00:15:52.058Z,36260.44
2022-08-10T00:18:02.754Z,36322.19
2022-08-10T00:20:29.929Z,36322.19
2022-08-10T00:22:59.168Z,36292.31
2022-08-10T00:25:26.377Z,36306.25
2022-08-10T00:28:03.543Z,36328.16
2022-08-10T00:30:31.737Z,36268.41
2022-08-10T00:33:01.202Z,36290.31
2022-08-10T00:35:28.348Z,36334.13
2022-08-10T00:37:58.258Z,36296.28
2022-08-10T00:40:37.037Z,36310.22
2022-08-10T00:43:06.840Z,36286.31
2022-08-10T00:45:35.436Z,36306.25
2022-08-10T00:48:02.752Z,36288.31
2022-08-10T00:50:32.593Z,36318.19
2022-08-10T00:52:59.902Z,36266.41
2022-08-10T00:55:27.546Z,36286.31
2022-08-10T00:57:56.601Z,36312.22
2022-08-10T01:00:24.480Z,36312.22
2022-08-10T01:02:52.329Z,36282.34
2022-08-10T01:05:20.776Z,36288.31
2022-08-10T01:08:04.675Z,36300.28
2022-08-10T01:11:06.137Z,36286.31
2022-08-10T01:14:11.810Z,36288.31
2022-08-10T01:16:49.697Z,36310.22
2022-08-10T01:19:41.741Z,36320.19
2022-08-10T01:22:20.381Z,36306.25
2022-08-10T01:25:15.515Z,36292.31
2022-08-10T01:28:20.364Z,36284.34
2022-08-10T01:30:54.600Z,36300.28
2022-08-10T01:33:58.722Z,36288.31
2022-08-10T01:36:51.250Z,36302.25
2022-08-10T01:39:25.340Z,36306.25
2022-08-10T01:41:58.105Z,36290.31
2022-08-10T01:44:32.150Z,36286.31
2022-08-10T01:47:23.421Z,36322.19
2022-08-10T01:49:59.418Z,36316.22
2022-08-10T01:52:30.878Z,36308.25
2022-08-10T01:54:59.222Z,36318.19
2022-08-10T01:57:33.195Z,36296.28
2022-08-10T02:00:04.486Z,36304.25
2022-08-10T02:02:40.350Z,36294.28
2022-08-10T02:05:08.884Z,36304.25
2022-08-10T02:07:41.977Z,36310.22
2022-08-10T02:10:12.972Z,36300.28
2022-08-10T02:12:42.591Z,36322.19
2022-08-10T02:15:14.843Z,36330.16
2022-08-10T02:17:57.511Z,36286.31
2022-08-10T02:20:40.973Z,36312.22
2022-08-10T02:23:15.234Z,36282.34
2022-08-10T02:25:44.099Z,36326.16
2022-08-10T02:28:27.344Z,36272.38
2022-08-10T02:31:22.302Z,36266.41
2022-08-10T02:33:57.828Z,36286.31
2022-08-10T02:36:33.758Z,36296.28
2022-08-10T02:39:04.419Z,36284.34
2022-08-10T02:45:13.002Z,36266.41
2022-08-10T02:45:27.649Z,36282.34
2022-08-10T02:47:26.199Z,36362.03
2022-08-10T02:50:03.940Z,36310.22
2022-08-10T02:53:00.939Z,36324.19
2022-08-10T02:55:52.739Z,36322.19
2022-08-10T02:58:33.425Z,36318.19
2022-08-10T03:01:04.853Z,36346.09
2022-08-10T03:03:39.015Z,36310.22
2022-08-10T03:06:12.831Z,36320.19
2022-08-10T03:08:45.096Z,36316.22
2022-08-10T03:12:35.083Z,36344.09
2022-08-10T03:14:18.112Z,36387.94
2022-08-10T03:16:50.167Z,36411.84
2022-08-10T03:20:33.659Z,36429.75
2022-08-10T03:22:09.307Z,36481.56
2022-08-10T03:24:44.380Z,36445.69
2022-08-10T03:27:14.391Z,36473.59
2022-08-10T03:30:32.942Z,36497.50
2022-08-10T03:32:31.090Z,36511.44
2022-08-10T03:35:00.311Z,36495.50
2022-08-10T03:37:27.578Z,36557.28
2022-08-10T03:39:55.505Z,36561.25
2022-08-10T03:42:27.717Z,36541.34
2022-08-10T03:44:56.689Z,36527.38
2022-08-10T03:47:30.547Z,36535.34
2022-08-10T03:50:45.552Z,36555.28
2022-08-10T03:52:55.866Z,36581.19
2022-08-10T03:56:26.597Z,36573.22
2022-08-10T03:58:16.095Z,36553.28
2022-08-10T04:00:46.962Z,36535.34
2022-08-10T04:03:16.882Z,36541.34
2022-08-10T04:05:47.653Z,36509.47
2022-08-10T04:08:15.267Z,36523.41
2022-08-10T04:10:42.599Z,36507.47
2022-08-10T04:13:12.659Z,36521.41
2022-08-10T04:15:39.852Z,36487.53
2022-08-10T04:18:07.128Z,36505.47
2022-08-10T04:20:45.878Z,36529.38
2022-08-10T04:23:24.710Z,36549.31
2022-08-10T04:26:24.770Z,36541.34
2022-08-10T04:28:53.023Z,36557.28
2022-08-10T04:31:28.043Z,36535.34
2022-08-10T04:34:01.820Z,36505.47
2022-08-10T04:36:38.450Z,36525.41
2022-08-10T04:39:06.486Z,36501.47
2022-08-10T04:41:39.208Z,36495.50
2022-08-10T04:44:13.516Z,36523.41
2022-08-10T04:46:56.474Z,36543.31
2022-08-10T04:49:55.165Z,36549.31
2022-08-10T04:52:17.354Z,36533.38
2022-08-10T04:54:46.719Z,36515.44
2022-08-10T04:57:16.070Z,36525.41
2022-08-10T04:59:44.151Z,36483.56
2022-08-10T05:02:29.284Z,36437.72
2022-08-10T05:04:58.190Z,36449.69
2022-08-10T05:07:28.202Z,36443.72
2022-08-10T05:10:03.164Z,36407.84
2022-08-10T05:12:38.461Z,36379.97
2022-08-10T05:15:12.224Z,36362.03
2022-08-10T05:17:43.500Z,36368.00
2022-08-10T05:20:28.942Z,36409.84
2022-08-10T05:22:56.277Z,36391.91
2022-08-10T05:25:23.613Z,36471.59
2022-08-10T05:27:52.411Z,36525.41
2022-08-10T05:30:22.269Z,36563.25
2022-08-10T05:32:56.164Z,36485.53
2022-08-10T05:35:26.247Z,36555.28
2022-08-10T05:38:12.127Z,36539.34
2022-08-10T05:40:46.597Z,36549.31
2022-08-10T05:43:20.528Z,36567.22
2022-08-10T05:46:18.718Z,36579.19
2022-08-10T05:48:57.176Z,36533.38
2022-08-10T05:51:28.212Z,36535.34
2022-08-10T05:54:04.300Z,36493.53
2022-08-10T05:56:57.071Z,36443.72
2022-08-10T06:00:11.131Z,36471.59
2022-08-10T06:02:34.034Z,36419.81
2022-08-10T06:05:26.253Z,36409.84
2022-08-10T06:08:04.798Z,36397.88
2022-08-10T06:10:37.306Z,36401.88
2022-08-10T06:13:59.995Z,36421.78
2022-08-10T06:16:36.071Z,36457.66
2022-08-10T06:19:07.129Z,36433.75
2022-08-10T06:21:38.051Z,36383.94
2022-08-10T06:24:11.391Z,36381.94
2022-08-10T06:26:41.056Z,36399.88
2022-08-10T06:29:11.760Z,36381.94
2022-08-10T06:31:47.635Z,36370.00
2022-08-10T06:34:24.303Z,36366.00
2022-08-10T06:36:53.084Z,36373.97
2022-08-10T06:39:35.564Z,36356.06
2022-08-10T06:42:19.694Z,36375.97
2022-08-10T06:44:52.428Z,36352.06
2022-08-10T06:47:23.479Z,36348.09
2022-08-10T06:49:59.519Z,36300.28
2022-08-10T06:52:41.296Z,36338.13
2022-08-10T06:55:49.714Z,36320.19
2022-08-10T06:58:55.859Z,36320.19
2022-08-10T07:01:50.904Z,36306.25
2022-08-10T07:04:34.403Z,36282.34
2022-08-10T07:07:08.011Z,36272.38
2022-08-10T07:09:40.528Z,36128.94
2022-08-10T07:12:21.078Z,36194.69
2022-08-10T07:14:54.212Z,36212.63
2022-08-10T07:17:28.458Z,36206.66
2022-08-10T07:20:01.169Z,36180.75
2022-08-10T07:23:08.195Z,36176.75
2022-08-10T07:25:32.446Z,36178.75
2022-08-10T07:28:02.059Z,36146.88
2022-08-10T07:30:32.813Z,36122.97
2022-08-10T07:33:02.775Z,36059.22
2022-08-10T07:35:42.007Z,36103.06
2022-08-10T07:38:26.549Z,36099.06
2022-08-10T07:41:02.252Z,36130.94
2022-08-10T07:43:43.597Z,36138.91
2022-08-10T07:46:19.235Z,36162.81
2022-08-10T07:48:51.068Z,36122.97
2022-08-10T07:51:20.000Z,36085.13
2022-08-10T07:53:52.712Z,36122.97
2022-08-10T07:56:45.815Z,36111.03
2022-08-10T07:59:19.593Z,36140.91
2022-08-10T08:01:58.518Z,36097.09
2022-08-10T08:04:30.187Z,36087.13
2022-08-10T08:06:59.999Z,36075.16
2022-08-10T08:09:35.431Z,36055.25
2022-08-10T08:12:03.885Z,36017.41
2022-08-10T08:14:38.747Z,36065.22
2022-08-10T08:17:08.893Z,36107.03
2022-08-10T08:19:45.915Z,36136.91
2022-08-10T08:24:30.565Z,36162.81
2022-08-10T08:25:31.015Z,36212.63
2022-08-10T08:28:07.169Z,36196.69
2022-08-10T08:30:40.844Z,36194.69
2022-08-10T08:33:41.183Z,36206.66
2022-08-10T08:36:12.399Z,36174.78
2022-08-10T08:38:43.918Z,36184.72
2022-08-10T08:41:22.763Z,36236.53
2022-08-10T08:44:18.152Z,36196.69
2022-08-10T08:48:03.234Z,36154.84
2022-08-10T08:50:59.732Z,36164.81
2022-08-10T08:54:02.719Z,36196.69
2022-08-10T08:56:41.193Z,36190.72
2022-08-10T08:59:14.029Z,36190.72
2022-08-10T09:02:16.056Z,36180.75
2022-08-10T09:05:04.235Z,36138.91
2022-08-10T09:08:03.683Z,36196.69
2022-08-10T09:11:03.158Z,36192.69
2022-08-10T09:13:41.409Z,36208.63
2022-08-10T09:16:17.445Z,36176.75
2022-08-10T09:19:02.365Z,36230.56
2022-08-10T09:22:26.762Z,36192.69
2022-08-10T09:25:13.670Z,36186.72
2022-08-10T09:27:56.142Z,36162.81
2022-08-10T09:31:10.850Z,36140.91
2022-08-10T09:36:23.688Z,36103.06
2022-08-10T09:37:22.705Z,36071.19
2022-08-10T09:40:56.608Z,36107.03
2022-08-10T09:43:26.185Z,36059.22
2022-08-10T09:46:27.526Z,36071.19
2022-08-10T09:49:53.479Z,35967.59
2022-08-10T09:52:40.209Z,36007.44
2022-08-10T09:55:13.919Z,35993.50
2022-08-10T09:58:21.218Z,35969.59
2022-08-10T10:01:57.707Z,35963.63
2022-08-10T10:04:14.527Z,35987.53
2022-08-10T10:06:55.756Z,35935.72
2022-08-10T10:09:43.546Z,35951.66
2022-08-10T10:12:17.701Z,35905.84
2022-08-10T10:15:24.853Z,35955.66
2022-08-10T10:18:09.533Z,35923.78
2022-08-10T10:21:01.741Z,35927.75
2022-08-10T10:24:20.436Z,36019.41
2022-08-10T10:27:16.048Z,36085.13
2022-08-10T10:29:56.290Z,36111.03
2022-08-10T10:32:45.189Z,36091.09
2022-08-10T10:35:23.615Z,36067.19
2022-08-10T10:38:00.804Z,36087.13
2022-08-10T10:41:01.697Z,36083.13
2022-08-10T10:43:56.900Z,36122.97
2022-08-10T10:46:39.614Z,36166.81
2022-08-10T10:49:34.472Z,36160.81
2022-08-10T10:52:26.867Z,36706.69
2022-08-10T10:55:12.678Z,37176.94
2022-08-10T10:58:01.062Z,38041.84
2022-08-10T11:00:44.913Z,38033.88
2022-08-10T11:03:26.792Z,37657.19
2022-08-10T11:06:40.461Z,37533.63
2022-08-10T11:10:04.636Z,37523.66
2022-08-10T11:12:32.195Z,37631.28
2022-08-10T11:15:09.723Z,37475.84
2022-08-10T11:17:50.423Z,37639.25
2022-08-10T11:20:42.311Z,37896.34
2022-08-10T11:23:28.893Z,37914.28
2022-08-10T11:26:28.652Z,37944.19
2022-08-10T11:29:11.279Z,37892.38
2022-08-10T11:31:48.174Z,38045.84
2022-08-10T11:34:48.997Z,37543.59
2022-08-10T11:38:28.462Z,37057.38
2022-08-10T11:40:37.400Z,36736.59
2022-08-10T11:43:10.708Z,36646.94
2022-08-10T11:45:52.131Z,36686.78
2022-08-10T11:48:54.325Z,36644.94
2022-08-10T11:51:28.903Z,36698.72
2022-08-10T11:54:05.064Z,36632.97
2022-08-10T11:56:57.252Z,36477.56
2022-08-10T11:59:51.105Z,36513.44
2022-08-10T12:02:39.609Z,36495.50
2022-08-10T12:05:17.026Z,36573.22
2022-08-10T12:10:07.708Z,36575.19
2022-08-10T12:10:41.064Z,36619.03
2022-08-10T12:13:19.774Z,36605.09
2022-08-10T12:16:07.529Z,36601.09
2022-08-10T12:18:53.653Z,36627.00
2022-08-10T12:21:35.285Z,36615.03
2022-08-10T12:24:16.800Z,36619.03
2022-08-10T12:26:56.031Z,36617.03
2022-08-10T12:29:43.828Z,36318.19
2022-08-10T12:32:39.407Z,36300.28
2022-08-10T12:35:22.780Z,36232.53
2022-08-10T12:38:04.131Z,36198.69
2022-08-10T12:40:48.611Z,36242.50
2022-08-10T12:44:04.408Z,36182.75
2022-08-10T12:46:55.542Z,36226.56
2022-08-10T12:49:31.593Z,36236.53
2022-08-10T12:52:04.452Z,36222.59
2022-08-10T12:54:36.371Z,36164.81
2022-08-10T12:57:13.499Z,36196.69
2022-08-10T12:59:50.791Z,36134.94
2022-08-10T13:02:32.854Z,36160.81
2022-08-10T13:05:07.145Z,36043.28
2022-08-10T13:08:07.272Z,36099.06
2022-08-10T13:10:24.215Z,36067.19
2022-08-10T13:12:58.279Z,36001.47
2022-08-10T13:15:49.233Z,35973.56
2022-08-10T13:18:26.665Z,35957.66
2022-08-10T13:21:00.508Z,36045.28
2022-08-10T13:23:37.412Z,36023.38
2022-08-10T13:26:06.855Z,36041.31
2022-08-10T13:28:47.179Z,36055.25
2022-08-10T13:31:20.387Z,36075.16
2022-08-10T13:34:39.031Z,36083.13
2022-08-10T13:36:49.292Z,36111.03
2022-08-10T13:39:22.727Z,36067.19
2022-08-10T13:41:54.585Z,36067.19
2022-08-10T13:44:35.103Z,36037.31
2022-08-10T13:47:02.557Z,36039.31
2022-08-10T13:49:42.089Z,35997.47
2022-08-10T13:52:30.493Z,36007.44
2022-08-10T13:55:00.357Z,36035.31
2022-08-10T13:57:34.388Z,36019.41
2022-08-10T14:00:34.450Z,36232.53
2022-08-10T14:03:08.462Z,36202.66
2022-08-10T14:05:42.455Z,36224.56
2022-08-10T14:08:17.194Z,36238.53
2022-08-10T14:11:09.902Z,36497.50
2022-08-10T14:13:44.350Z,36563.25
2022-08-10T14:16:13.409Z,36527.38
2022-08-10T14:18:44.666Z,36489.53
2022-08-10T14:21:16.259Z,36433.75
2022-08-10T14:23:52.830Z,36443.72
2022-08-10T14:26:30.545Z,36344.09
2022-08-10T14:29:19.744Z,36354.06
2022-08-10T14:32:01.176Z,36262.41
2022-08-10T14:36:18.493Z,36234.53
2022-08-10T14:37:37.463Z,36236.53
2022-08-10T14:40:11.428Z,36190.72
2022-08-10T14:42:53.046Z,36198.69
2022-08-10T14:45:23.103Z,36166.81
2022-08-10T14:47:59.376Z,36178.75
2022-08-10T14:50:33.561Z,36170.78
2022-08-10T14:53:17.308Z,36128.94
2022-08-10T14:56:00.871Z,36099.06
2022-08-10T14:59:06.182Z,36101.06
2022-08-10T15:02:00.372Z,36065.22
2022-08-10T15:04:24.780Z,36479.56
2022-08-10T15:07:12.385Z,36539.34
2022-08-10T15:10:00.102Z,36519.41
2022-08-10T15:12:36.387Z,36549.31
2022-08-10T15:15:07.522Z,36529.38
2022-08-10T15:17:39.451Z,36547.31
2022-08-10T15:20:20.431Z,36778.41
2022-08-10T15:22:55.540Z,36734.59
2022-08-10T15:25:38.745Z,36629.00
2022-08-10T15:28:23.560Z,36567.22
2022-08-10T15:31:32.046Z,36467.63
2022-08-10T15:34:22.792Z,36356.06
2022-08-10T15:37:39.574Z,36344.09
2022-08-10T15:40:23.770Z,36210.63
2022-08-10T15:43:20.415Z,36176.75
2022-08-10T15:46:17.160Z,36250.47
2022-08-10T15:48:58.135Z,36206.66
2022-08-10T15:51:53.425Z,36300.28
2022-08-10T15:54:33.267Z,36348.09
2022-08-10T15:57:21.643Z,36658.88
2022-08-10T16:00:19.453Z,37200.84
2022-08-10T16:02:59.659Z,37826.59
2022-08-10T16:06:00.215Z,37792.72
2022-08-10T16:08:27.623Z,37402.09
2022-08-10T16:11:05.147Z,37533.63
2022-08-10T16:13:50.807Z,37368.22
2022-08-10T16:16:37.583Z,37597.41
2022-08-10T16:19:13.619Z,37673.13
2022-08-10T16:22:35.928Z,37866.47
2022-08-10T16:25:01.189Z,37944.19
2022-08-10T16:27:40.952Z,38049.84
2022-08-10T16:30:10.298Z,37984.06
2022-08-10T16:32:48.165Z,37848.53
2022-08-10T16:35:24.959Z,37874.44
2022-08-10T16:37:59.771Z,37818.63
2022-08-10T16:40:30.224Z,37764.81
2022-08-10T16:43:12.644Z,37705.03
2022-08-10T16:46:02.887Z,37657.19
2022-08-10T16:48:50.123Z,37531.66
2022-08-10T16:51:22.449Z,37372.22
2022-08-10T16:53:53.623Z,37139.06
2022-08-10T16:56:35.247Z,36931.84
2022-08-10T16:59:20.527Z,36840.19
2022-08-10T17:01:54.029Z,36814.28
2022-08-10T17:04:25.268Z,36752.53
2022-08-10T17:07:02.824Z,36652.91
2022-08-10T17:09:33.968Z,36585.16
2022-08-10T17:12:16.043Z,36571.22
2022-08-10T17:15:09.709Z,36607.06
2022-08-10T17:17:46.950Z,36545.31
2022-08-10T17:20:31.621Z,36483.56
2022-08-10T17:23:14.400Z,36457.66
2022-08-10T17:25:50.979Z,36473.59
2022-08-10T17:28:34.595Z,36423.78
2022-08-10T17:31:23.737Z,36328.16
2022-08-10T17:34:02.161Z,36278.34
2022-08-10T17:36:36.755Z,36214.63
2022-08-10T17:39:08.087Z,36244.50
2022-08-10T17:41:37.633Z,36230.56
2022-08-10T17:44:06.430Z,36236.53
2022-08-10T17:46:38.898Z,36220.59
2022-08-10T17:49:13.414Z,36164.81
2022-08-10T17:51:42.363Z,36111.03
2022-08-10T17:54:31.233Z,36128.94
2022-08-10T17:57:02.164Z,36120.97
2022-08-10T17:59:42.334Z,36081.16
2022-08-10T18:02:18.220Z,36047.28
2022-08-10T18:04:58.760Z,36039.31
2022-08-10T18:07:51.505Z,36009.44
2022-08-10T18:10:23.914Z,35993.50
2022-08-10T18:12:58.466Z,35975.56
2022-08-10T18:15:28.806Z,35939.72
2022-08-10T18:18:06.370Z,35963.63
2022-08-10T18:20:37.417Z,35929.75
2022-08-10T18:23:07.855Z,35947.69
2022-08-10T18:25:46.113Z,35935.72
2022-08-10T18:28:23.862Z,35911.81
2022-08-10T18:30:56.382Z,35931.75
2022-08-10T18:33:39.214Z,35915.81
2022-08-10T18:36:09.172Z,35901.88
2022-08-10T18:38:52.398Z,35866.00
2022-08-10T18:42:05.461Z,35885.94
2022-08-10T18:44:44.904Z,35850.09
2022-08-10T18:47:23.744Z,35872.00
2022-08-10T18:50:05.552Z,35828.16
2022-08-10T18:52:40.834Z,35842.13
2022-08-10T18:55:27.037Z,35875.97
2022-08-10T18:57:54.597Z,35935.72
2022-08-10T19:00:43.905Z,35872.00
2022-08-10T19:03:31.642Z,35895.91
2022-08-10T19:06:40.013Z,35921.78
2022-08-10T19:09:47.505Z,35971.59
2022-08-10T19:12:30.816Z,36019.41
2022-08-10T19:15:21.377Z,36017.41
2022-08-10T19:18:05.592Z,36059.22
2022-08-10T19:21:02.137Z,36136.91
2022-08-10T19:23:57.752Z,36162.81
2022-08-10T19:26:44.815Z,36186.72
2022-08-10T19:30:09.479Z,36176.75
2022-08-10T19:33:09.371Z,36238.53
2022-08-10T19:36:03.123Z,36278.34
2022-08-10T19:38:57.000Z,36290.31
2022-08-10T19:41:32.613Z,36350.06
2022-08-10T19:44:43.493Z,36280.34
2022-08-10T19:47:35.823Z,36332.16
2022-08-10T19:50:11.352Z,36377.97
2022-08-10T19:52:41.312Z,36377.97
2022-08-10T19:55:46.963Z,36401.88
2022-08-10T19:58:50.939Z,36445.69
2022-08-10T20:01:20.182Z,36403.88
2022-08-10T20:04:01.064Z,36477.56
2022-08-10T20:06:49.243Z,36537.34
2022-08-10T20:09:36.684Z,36555.28
2022-08-10T20:12:50.357Z,36623.00
2022-08-10T20:16:03.194Z,36629.00
2022-08-10T20:18:53.482Z,36660.88
2022-08-10T20:21:29.150Z,36710.69
2022-08-10T20:24:15.738Z,36714.66
2022-08-10T20:26:53.372Z,36746.53
2022-08-10T20:29:58.349Z,36788.38
2022-08-10T20:32:54.622Z,36828.22
2022-08-10T20:35:30.801Z,36814.28
2022-08-10T20:38:19.703Z,36818.28
2022-08-10T20:41:05.899Z,36848.16
2022-08-10T20:43:47.476Z,36842.19
2022-08-10T20:46:27.833Z,36866.09
2022-08-10T20:49:36.000Z,36893.97
2022-08-10T20:52:08.018Z,36884.03
2022-08-10T20:54:44.333Z,36903.94
2022-08-10T20:57:54.891Z,36915.91
2022-08-10T21:00:29.732Z,36947.78
2022-08-10T21:03:21.290Z,36947.78
2022-08-10T21:05:54.802Z,37009.56
2022-08-10T21:08:54.857Z,36953.75
2022-08-10T21:11:32.276Z,36915.91
2022-08-10T21:14:20.091Z,36895.97
2022-08-10T21:17:23.801Z,36937.81
2022-08-10T21:20:11.405Z,36927.84
2022-08-10T21:25:38.744Z,36971.69
2022-08-10T21:25:42.195Z,36923.88
2022-08-10T21:28:15.174Z,36997.59
2022-08-10T21:30:46.753Z,36951.78
2022-08-10T21:33:44.337Z,36959.75
2022-08-10T21:36:25.851Z,36983.66
2022-08-10T21:39:06.685Z,36963.72
2022-08-10T21:42:23.653Z,36878.03
2022-08-10T21:45:58.369Z,36919.88
2022-08-10T21:48:57.870Z,36951.78
2022-08-10T21:52:00.392Z,36937.81
2022-08-10T21:55:24.310Z,36911.91
2022-08-10T21:59:04.643Z,36909.94
2022-08-10T22:01:59.492Z,36951.78
2022-08-10T22:04:48.708Z,36977.66
2022-08-10T22:07:38.779Z,36949.78
2022-08-10T22:10:28.819Z,36884.03
2022-08-10T22:13:20.074Z,36937.81
2022-08-10T22:16:15.735Z,36995.59
2022-08-10T22:19:14.497Z,36973.69
2022-08-10T22:22:27.115Z,37059.38
2022-08-10T22:25:52.158Z,37031.47
2022-08-10T22:28:38.033Z,37095.22
2022-08-10T22:31:42.566Z,37069.31
2022-08-10T22:34:31.510Z,37061.34
2022-08-10T22:37:17.098Z,37083.28
2022-08-10T22:40:12.842Z,37085.28
2022-08-10T22:43:10.837Z,37077.31
2022-08-10T22:46:08.761Z,37073.31
2022-08-10T22:49:02.156Z,37057.38
2022-08-10T22:51:56.905Z,37095.22
2022-08-10T22:54:46.415Z,37117.16
2022-08-10T22:57:34.228Z,37097.22
2022-08-10T23:00:19.745Z,37099.22
2022-08-10T23:03:22.075Z,37149.03
2022-08-10T23:05:54.171Z,37127.13
2022-08-10T23:08:34.374Z,37053.38
2022-08-10T23:11:08.098Z,36925.88
2022-08-10T23:13:44.575Z,36909.94
2022-08-10T23:16:40.299Z,36860.13
2022-08-10T23:19:18.690Z,36901.97
2022-08-10T23:22:05.641Z,36901.97
2022-08-10T23:24:43.352Z,36899.97
2022-08-10T23:27:39.632Z,36919.88
2022-08-10T23:30:10.426Z,36943.78
2022-08-10T23:33:06.345Z,36945.78
2022-08-10T23:36:30.255Z,36901.97
2022-08-10T23:38:34.544Z,36953.75
2022-08-10T23:41:07.936Z,36933.84
2022-08-10T23:44:02.754Z,36925.88
2022-08-10T23:46:35.266Z,36901.97
2022-08-10T23:49:07.900Z,36947.78
2022-08-10T23:51:55.659Z,36911.91
2022-08-10T23:54:25.907Z,36939.81
2022-08-10T23:57:00.941Z,36929.84
2022-08-10T23:59:32.553Z,36923.88
